createdAt,value
2022-09-27T00:01:44.182Z,79.50
2022-09-27T00:04:12.289Z,80.71
2022-09-27T00:06:41.084Z,80.25
2022-09-27T00:09:08.407Z,80.71
2022-09-27T00:11:38.980Z,79.75
2022-09-27T00:14:07.791Z,79.63
2022-09-27T00:16:38.346Z,79.76
2022-09-27T00:19:08.775Z,80.27
2022-09-27T00:21:36.355Z,79.96
2022-09-27T00:24:03.326Z,80.71
2022-09-27T00:26:30.482Z,80.01
2022-09-27T00:28:57.986Z,80.19
2022-09-27T00:31:30.779Z,81.09
2022-09-27T00:34:00.955Z,81.09
2022-09-27T00:36:29.309Z,80.38
2022-09-27T00:38:56.760Z,81.19
2022-09-27T00:41:35.541Z,80.08
2022-09-27T00:44:06.343Z,81.17
2022-09-27T00:46:38.525Z,81.10
2022-09-27T00:49:19.058Z,80.08
2022-09-27T00:51:50.876Z,80.08
2022-09-27T00:54:19.668Z,80.44
2022-09-27T00:56:47.548Z,81.17
2022-09-27T00:59:20.854Z,80.58
2022-09-27T01:01:49.953Z,80.58
2022-09-27T01:04:24.195Z,80.62
2022-09-27T01:06:51.806Z,80.22
2022-09-27T01:09:19.049Z,81.30
2022-09-27T01:12:05.611Z,81.35
2022-09-27T01:14:55.260Z,81.26
2022-09-27T01:17:50.270Z,80.58
2022-09-27T01:20:46.469Z,80.39
2022-09-27T01:23:28.904Z,81.54
2022-09-27T01:26:16.889Z,81.38
2022-09-27T01:29:05.756Z,80.50
2022-09-27T01:31:41.599Z,80.81
2022-09-27T01:34:21.019Z,81.25
2022-09-27T01:37:01.298Z,81.94
2022-09-27T01:39:50.260Z,81.26
2022-09-27T01:42:41.356Z,80.69
2022-09-27T01:45:15.912Z,81.16
2022-09-27T01:48:07.608Z,81.07
2022-09-27T01:51:25.449Z,80.84
2022-09-27T01:53:56.543Z,82.05
2022-09-27T01:56:50.677Z,81.89
2022-09-27T01:59:29.798Z,81.73
2022-09-27T02:02:12.369Z,81.76
2022-09-27T02:05:01.244Z,81.66
2022-09-27T02:07:56.661Z,81.03
2022-09-27T02:10:29.091Z,80.89
2022-09-27T02:13:09.492Z,82.04
2022-09-27T02:16:13.254Z,81.90
2022-09-27T02:18:44.747Z,81.08
2022-09-27T02:21:15.133Z,82.01
2022-09-27T02:23:47.855Z,81.68
2022-09-27T02:26:27.239Z,81.56
2022-09-27T02:29:30.692Z,81.75
2022-09-27T02:31:57.755Z,81.89
2022-09-27T02:34:29.102Z,82.59
2022-09-27T02:36:56.483Z,82.65
2022-09-27T02:39:24.051Z,82.65
2022-09-27T02:42:00.277Z,82.89
2022-09-27T02:44:28.614Z,82.41
2022-09-27T02:47:13.396Z,82.55
2022-09-27T02:49:56.047Z,82.74
2022-09-27T02:53:21.113Z,82.27
2022-09-27T02:56:15.823Z,82.19
2022-09-27T02:59:53.817Z,82.10
2022-09-27T03:02:48.461Z,82.41
2022-09-27T03:05:28.951Z,82.71
2022-09-27T03:07:56.263Z,83.39
2022-09-27T03:10:26.667Z,82.56
2022-09-27T03:12:54.834Z,82.83
2022-09-27T03:15:21.782Z,82.62
2022-09-27T03:17:54.740Z,82.82
2022-09-27T03:20:24.723Z,82.76
2022-09-27T03:23:11.388Z,82.61
2022-09-27T03:25:38.796Z,83.17
2022-09-27T03:28:06.605Z,83.66
2022-09-27T03:30:34.158Z,83.89
2022-09-27T03:33:01.188Z,83.83
2022-09-27T03:35:46.625Z,83.63
2022-09-27T03:38:14.481Z,83.86
2022-09-27T03:40:41.505Z,84.21
2022-09-27T03:43:09.660Z,83.00
2022-09-27T03:45:37.594Z,83.08
2022-09-27T03:48:08.686Z,83.30
2022-09-27T03:50:35.980Z,83.73
2022-09-27T03:53:03.139Z,82.92
2022-09-27T03:55:30.867Z,84.04
2022-09-27T03:57:57.732Z,82.93
2022-09-27T04:00:26.290Z,83.09
2022-09-27T04:02:53.522Z,83.51
2022-09-27T04:05:28.947Z,84.17
2022-09-27T04:08:02.816Z,83.39
2022-09-27T04:10:32.278Z,83.00
2022-09-27T04:12:59.376Z,83.98
2022-09-27T04:15:30.395Z,83.84
2022-09-27T04:18:17.033Z,83.06
2022-09-27T04:21:22.889Z,83.34
2022-09-27T04:23:52.747Z,82.99
2022-09-27T04:26:23.194Z,83.77
2022-09-27T04:29:13.391Z,83.36
2022-09-27T04:31:47.791Z,83.08
2022-09-27T04:34:14.792Z,83.75
2022-09-27T04:36:41.760Z,83.20
2022-09-27T04:39:12.899Z,83.80
2022-09-27T04:41:42.706Z,82.69
2022-09-27T04:44:09.819Z,83.21
2022-09-27T04:46:36.807Z,83.85
2022-09-27T04:49:04.615Z,82.70
2022-09-27T04:51:34.526Z,83.11
2022-09-27T04:54:01.993Z,83.67
2022-09-27T04:56:32.592Z,83.23
2022-09-27T04:59:01.380Z,83.78
2022-09-27T05:01:30.445Z,83.00
2022-09-27T05:03:57.823Z,82.87
2022-09-27T05:06:26.089Z,83.93
2022-09-27T05:08:55.635Z,83.38
2022-09-27T05:11:28.583Z,82.89
2022-09-27T05:14:14.303Z,83.80
2022-09-27T05:16:51.092Z,83.99
2022-09-27T05:19:38.544Z,83.49
2022-09-27T05:22:09.168Z,82.75
2022-09-27T05:24:36.143Z,83.08
2022-09-27T05:27:04.520Z,83.57
2022-09-27T05:29:31.755Z,83.79
2022-09-27T05:32:24.697Z,82.73
2022-09-27T05:35:14.922Z,83.78
2022-09-27T05:37:41.868Z,84.05
2022-09-27T05:40:22.906Z,83.75
2022-09-27T05:42:56.552Z,84.26
2022-09-27T05:45:25.175Z,83.77
2022-09-27T05:47:58.862Z,83.59
2022-09-27T05:50:27.299Z,84.00
2022-09-27T05:52:54.874Z,84.13
2022-09-27T05:55:23.020Z,84.12
2022-09-27T05:58:01.877Z,83.08
2022-09-27T06:00:39.501Z,84.06
2022-09-27T06:03:26.460Z,83.28
2022-09-27T06:06:15.666Z,83.56
2022-09-27T06:08:53.798Z,83.55
2022-09-27T06:11:22.301Z,83.42
2022-09-27T06:13:50.121Z,84.19
2022-09-27T06:16:17.308Z,83.38
2022-09-27T06:18:46.241Z,83.22
2022-09-27T06:21:13.644Z,84.09
2022-09-27T06:23:45.034Z,83.24
2022-09-27T06:26:24.897Z,83.12
2022-09-27T06:28:58.996Z,83.23
2022-09-27T06:31:26.375Z,82.96
2022-09-27T06:34:03.227Z,83.30
2022-09-27T06:36:31.248Z,83.96
2022-09-27T06:38:58.156Z,83.99
2022-09-27T06:41:36.078Z,82.76
2022-09-27T06:44:05.892Z,83.63
2022-09-27T06:47:07.848Z,83.02
2022-09-27T06:50:11.372Z,83.07
2022-09-27T06:52:58.749Z,83.51
2022-09-27T06:55:46.038Z,83.27
2022-09-27T06:58:31.628Z,82.62
2022-09-27T07:01:37.021Z,83.03
2022-09-27T07:04:42.948Z,82.73
2022-09-27T07:08:05.127Z,82.96
2022-09-27T07:10:55.404Z,82.64
2022-09-27T07:13:43.355Z,82.10
2022-09-27T07:16:34.592Z,82.16
2022-09-27T07:19:23.873Z,82.83
2022-09-27T07:22:11.924Z,82.39
2022-09-27T07:25:00.309Z,81.88
2022-09-27T07:27:47.331Z,82.57
2022-09-27T07:30:34.773Z,82.26
2022-09-27T07:33:25.092Z,81.26
2022-09-27T07:36:12.162Z,81.38
2022-09-27T07:39:02.097Z,81.63
2022-09-27T07:41:52.176Z,81.04
2022-09-27T07:44:39.324Z,81.15
2022-09-27T07:47:48.983Z,81.52
2022-09-27T07:50:42.693Z,80.94
2022-09-27T07:53:55.870Z,81.63
2022-09-27T07:56:59.148Z,80.37
2022-09-27T07:59:46.140Z,80.71
2022-09-27T08:02:37.999Z,80.57
2022-09-27T08:05:25.697Z,80.15
2022-09-27T08:08:19.370Z,80.26
2022-09-27T08:11:08.580Z,79.95
2022-09-27T08:13:56.836Z,79.19
2022-09-27T08:16:48.830Z,79.97
2022-09-27T08:19:49.432Z,79.85
2022-09-27T08:23:01.515Z,79.46
2022-09-27T08:26:02.216Z,79.09
2022-09-27T08:29:00.905Z,78.26
2022-09-27T08:31:51.442Z,78.03
2022-09-27T08:34:39.099Z,77.39
2022-09-27T08:37:26.488Z,77.59
2022-09-27T08:40:13.574Z,77.68
2022-09-27T08:43:16.936Z,77.67
2022-09-27T08:46:15.989Z,77.03
2022-09-27T08:48:47.700Z,76.69
2022-09-27T08:51:16.426Z,76.03
2022-09-27T08:53:56.659Z,76.14
2022-09-27T08:56:24.950Z,75.08
2022-09-27T08:59:02.172Z,75.41
2022-09-27T09:01:34.912Z,74.64
2022-09-27T09:04:15.825Z,74.96
2022-09-27T09:07:20.331Z,74.68
2022-09-27T09:10:42.779Z,75.23
2022-09-27T09:13:36.825Z,74.34
2022-09-27T09:16:46.094Z,74.17
2022-09-27T09:19:51.316Z,74.43
2022-09-27T09:23:09.028Z,74.04
2022-09-27T09:26:04.491Z,73.56
2022-09-27T09:29:03.730Z,73.62
2022-09-27T09:32:14.670Z,73.40
2022-09-27T09:35:17.013Z,73.27
2022-09-27T09:38:11.009Z,72.92
2022-09-27T09:41:07.747Z,72.72
2022-09-27T09:44:16.077Z,72.71
2022-09-27T09:47:10.668Z,73.07
2022-09-27T09:50:06.055Z,72.74
2022-09-27T09:53:05.024Z,72.53
2022-09-27T09:55:56.373Z,72.97
2022-09-27T09:58:51.811Z,72.71
2022-09-27T10:01:50.387Z,72.55
2022-09-27T10:04:43.505Z,72.44
2022-09-27T10:07:30.596Z,72.77
2022-09-27T10:10:21.856Z,72.76
2022-09-27T10:13:15.980Z,72.91
2022-09-27T10:16:34.078Z,72.60
2022-09-27T10:19:23.480Z,72.82
2022-09-27T10:22:11.521Z,72.71
2022-09-27T10:25:17.648Z,72.39
2022-09-27T10:28:15.459Z,72.70
2022-09-27T10:31:02.488Z,72.76
2022-09-27T10:33:55.146Z,72.49
2022-09-27T10:36:46.860Z,72.76
2022-09-27T10:39:42.436Z,72.56
2022-09-27T10:42:58.352Z,72.70
2022-09-27T10:45:56.971Z,72.44
2022-09-27T10:48:44.060Z,72.60
2022-09-27T10:51:51.543Z,72.79
2022-09-27T10:54:54.784Z,72.62
2022-09-27T10:57:45.319Z,72.66
2022-09-27T11:00:53.690Z,72.59
2022-09-27T11:03:41.148Z,72.25
2022-09-27T11:06:49.827Z,72.94
2022-09-27T11:09:43.703Z,73.03
2022-09-27T11:12:34.947Z,72.30
2022-09-27T11:15:25.616Z,72.52
2022-09-27T11:18:23.699Z,72.75
2022-09-27T11:21:29.383Z,72.59
2022-09-27T11:24:16.456Z,73.31
2022-09-27T11:27:09.913Z,72.46
2022-09-27T11:30:24.787Z,72.59
2022-09-27T11:33:48.695Z,73.08
2022-09-27T11:37:16.514Z,73.14
2022-09-27T11:40:24.065Z,73.36
2022-09-27T11:43:29.120Z,72.87
2022-09-27T11:46:41.091Z,72.55
2022-09-27T11:49:44.415Z,72.73
2022-09-27T11:52:50.216Z,72.41
2022-09-27T11:55:49.694Z,73.00
2022-09-27T11:58:43.313Z,72.97
2022-09-27T12:01:34.397Z,72.86
2022-09-27T12:04:57.931Z,73.02
2022-09-27T12:07:55.752Z,73.17
2022-09-27T12:10:43.021Z,73.22
2022-09-27T12:13:34.582Z,72.62
2022-09-27T12:16:22.802Z,73.09
2022-09-27T12:19:12.379Z,72.48
2022-09-27T12:22:11.295Z,72.81
2022-09-27T12:25:03.956Z,73.08
2022-09-27T12:28:09.675Z,72.81
2022-09-27T12:31:27.639Z,72.65
2022-09-27T12:34:19.522Z,72.28
2022-09-27T12:37:24.443Z,72.46
2022-09-27T12:40:20.731Z,72.31
2022-09-27T12:43:14.920Z,72.58
2022-09-27T12:47:00.982Z,72.63
2022-09-27T12:50:29.942Z,72.25
2022-09-27T12:53:25.314Z,72.22
2022-09-27T12:56:27.111Z,72.20
2022-09-27T12:59:42.040Z,72.06
2022-09-27T13:03:17.244Z,71.78
2022-09-27T13:06:47.754Z,71.80
2022-09-27T13:10:17.707Z,71.70
2022-09-27T13:13:11.463Z,71.88
2022-09-27T13:15:59.691Z,71.75
2022-09-27T13:18:53.092Z,72.21
2022-09-27T13:22:09.719Z,71.88
2022-09-27T13:25:10.021Z,71.73
2022-09-27T13:28:13.825Z,71.19
2022-09-27T13:31:01.018Z,70.76
2022-09-27T13:33:48.951Z,70.40
2022-09-27T13:36:51.977Z,70.26
2022-09-27T13:39:40.377Z,69.49
2022-09-27T13:43:02.063Z,69.61
2022-09-27T13:46:18.155Z,68.86
2022-09-27T13:49:25.211Z,69.19
2022-09-27T13:53:02.555Z,69.20
2022-09-27T13:56:08.628Z,68.92
2022-09-27T13:59:23.213Z,68.39
2022-09-27T14:02:54.635Z,68.41
2022-09-27T14:05:52.707Z,68.40
2022-09-27T14:08:47.456Z,68.45
2022-09-27T14:12:09.510Z,68.22
2022-09-27T14:14:57.288Z,68.30
2022-09-27T14:17:45.371Z,68.46
2022-09-27T14:21:12.712Z,68.45
2022-09-27T14:24:53.571Z,68.25
2022-09-27T14:27:54.631Z,68.44
2022-09-27T14:30:50.807Z,68.82
2022-09-27T14:34:00.517Z,68.70
2022-09-27T14:36:51.823Z,69.24
2022-09-27T14:39:49.996Z,69.05
2022-09-27T14:42:49.863Z,69.28
2022-09-27T14:45:57.564Z,69.86
2022-09-27T14:48:53.175Z,69.89
2022-09-27T14:51:47.122Z,70.06
2022-09-27T14:54:26.774Z,69.49
2022-09-27T14:57:15.170Z,69.90
2022-09-27T15:00:02.665Z,69.84
2022-09-27T15:02:49.720Z,70.57
2022-09-27T15:05:39.145Z,69.99
2022-09-27T15:08:26.740Z,69.77
2022-09-27T15:11:14.165Z,70.19
2022-09-27T15:14:02.200Z,70.67
2022-09-27T15:16:51.193Z,70.84
2022-09-27T15:19:50.707Z,70.32
2022-09-27T15:23:06.651Z,70.22
2022-09-27T15:25:59.323Z,70.82
2022-09-27T15:28:46.389Z,71.45
2022-09-27T15:31:34.695Z,71.55
2022-09-27T15:34:23.577Z,71.65
2022-09-27T15:37:17.072Z,71.87
2022-09-27T15:40:03.944Z,71.65
2022-09-27T15:43:33.372Z,72.63
2022-09-27T15:46:22.598Z,71.88
2022-09-27T15:49:55.867Z,72.11
2022-09-27T15:53:03.724Z,72.75
2022-09-27T15:55:53.832Z,73.20
2022-09-27T15:58:41.673Z,73.17
2022-09-27T16:01:37.832Z,72.77
2022-09-27T16:04:29.048Z,73.39
2022-09-27T16:07:16.120Z,73.31
2022-09-27T16:10:02.984Z,74.03
2022-09-27T16:12:49.965Z,73.74
2022-09-27T16:15:37.060Z,74.38
2022-09-27T16:18:27.087Z,73.95
2022-09-27T16:21:18.221Z,74.80
2022-09-27T16:24:06.381Z,74.37
2022-09-27T16:26:53.524Z,74.58
2022-09-27T16:29:44.190Z,74.17
2022-09-27T16:32:31.376Z,74.63
2022-09-27T16:35:18.534Z,74.37
2022-09-27T16:38:05.869Z,74.71
2022-09-27T16:40:52.944Z,75.49
2022-09-27T16:43:39.827Z,75.35
2022-09-27T16:46:28.367Z,75.11
2022-09-27T16:49:16.249Z,75.45
2022-09-27T16:52:21.499Z,76.04
2022-09-27T16:55:08.723Z,76.17
2022-09-27T16:57:55.665Z,75.48
2022-09-27T17:00:42.653Z,76.51
2022-09-27T17:03:29.630Z,76.60
2022-09-27T17:06:21.524Z,76.01
2022-09-27T17:09:08.334Z,75.85
2022-09-27T17:11:55.550Z,75.81
2022-09-27T17:14:42.643Z,77.18
2022-09-27T17:17:29.677Z,76.21
2022-09-27T17:20:16.640Z,76.30
2022-09-27T17:23:03.468Z,77.46
2022-09-27T17:25:30.429Z,76.34
2022-09-27T17:27:57.332Z,76.49
2022-09-27T17:30:24.544Z,76.70
2022-09-27T17:32:51.571Z,76.65
2022-09-27T17:35:18.663Z,76.84
2022-09-27T17:37:46.215Z,76.87
2022-09-27T17:40:14.460Z,77.52
2022-09-27T17:42:42.119Z,77.36
2022-09-27T17:45:09.525Z,76.75
2022-09-27T17:47:54.961Z,77.67
2022-09-27T17:50:24.804Z,76.92
2022-09-27T17:52:53.432Z,78.20
2022-09-27T17:55:24.279Z,77.96
2022-09-27T17:57:51.758Z,77.29
2022-09-27T18:00:19.290Z,77.74
2022-09-27T18:03:06.571Z,77.46
2022-09-27T18:05:53.662Z,77.93
2022-09-27T18:08:40.713Z,78.13
2022-09-27T18:11:30.587Z,78.34
2022-09-27T18:14:18.997Z,78.27
2022-09-27T18:17:05.970Z,77.52
2022-09-27T18:19:53.027Z,77.51
2022-09-27T18:22:40.040Z,78.69
2022-09-27T18:25:27.347Z,78.83
2022-09-27T18:28:14.259Z,79.00
2022-09-27T18:30:41.229Z,77.77
2022-09-27T18:33:08.144Z,79.00
2022-09-27T18:35:55.331Z,78.17
2022-09-27T18:38:42.303Z,78.10
2022-09-27T18:41:29.843Z,78.39
2022-09-27T18:44:19.750Z,78.48
2022-09-27T18:47:07.533Z,79.00
2022-09-27T18:49:54.408Z,79.21
2022-09-27T18:52:41.292Z,79.18
2022-09-27T18:55:28.389Z,78.64
2022-09-27T18:58:15.400Z,78.82
2022-09-27T19:01:03.074Z,79.87
2022-09-27T19:03:50.329Z,79.67
2022-09-27T19:06:42.488Z,79.79
2022-09-27T19:09:31.149Z,79.22
2022-09-27T19:12:18.139Z,79.14
2022-09-27T19:15:04.979Z,79.05
2022-09-27T19:17:51.878Z,79.90
2022-09-27T19:20:39.772Z,79.68
2022-09-27T19:23:26.815Z,79.36
2022-09-27T19:26:13.748Z,80.11
2022-09-27T19:29:02.588Z,79.52
2022-09-27T19:31:49.487Z,80.63
2022-09-27T19:34:36.422Z,79.41
2022-09-27T19:37:23.363Z,80.34
2022-09-27T19:40:10.516Z,79.71
2022-09-27T19:42:57.447Z,79.77
2022-09-27T19:45:44.339Z,80.76
2022-09-27T19:48:31.330Z,80.66
2022-09-27T19:50:59.941Z,79.83
2022-09-27T19:53:31.877Z,81.07
2022-09-27T19:56:01.042Z,80.10
2022-09-27T19:58:30.067Z,80.28
2022-09-27T20:01:08.768Z,80.60
2022-09-27T20:03:38.779Z,80.75
2022-09-27T20:06:08.441Z,81.24
2022-09-27T20:08:35.809Z,81.35
2022-09-27T20:11:07.093Z,80.50
2022-09-27T20:13:34.935Z,81.48
2022-09-27T20:16:04.918Z,81.61
2022-09-27T20:18:32.183Z,81.49
2022-09-27T20:21:03.872Z,81.68
2022-09-27T20:23:32.579Z,81.83
2022-09-27T20:26:20.295Z,81.44
2022-09-27T20:28:52.532Z,80.98
2022-09-27T20:32:01.517Z,81.31
2022-09-27T20:34:49.624Z,80.91
2022-09-27T20:37:36.552Z,80.96
2022-09-27T20:40:23.626Z,81.31
2022-09-27T20:43:10.446Z,81.60
2022-09-27T20:45:57.392Z,81.26
2022-09-27T20:48:44.181Z,81.28
2022-09-27T20:51:36.361Z,81.97
2022-09-27T20:54:24.999Z,81.26
2022-09-27T20:57:12.082Z,81.07
2022-09-27T20:59:59.064Z,81.53
2022-09-27T21:02:45.999Z,81.13
2022-09-27T21:05:32.839Z,82.15
2022-09-27T21:08:19.890Z,81.77
2022-09-27T21:11:06.676Z,82.54
2022-09-27T21:13:54.025Z,82.37
2022-09-27T21:16:43.533Z,81.97
2022-09-27T21:19:30.923Z,81.64
2022-09-27T21:22:17.783Z,81.73
2022-09-27T21:25:04.817Z,81.99
2022-09-27T21:27:31.774Z,82.36
2022-09-27T21:30:00.205Z,82.05
2022-09-27T21:32:27.699Z,82.95
2022-09-27T21:34:55.715Z,82.61
2022-09-27T21:37:23.141Z,81.87
2022-09-27T21:39:50.241Z,82.90
2022-09-27T21:42:17.104Z,83.24
2022-09-27T21:44:44.231Z,82.95
2022-09-27T21:47:13.736Z,83.11
2022-09-27T21:49:40.600Z,82.23
2022-09-27T21:52:07.483Z,82.30
2022-09-27T21:54:34.449Z,82.69
2022-09-27T21:57:01.724Z,83.38
2022-09-27T21:59:28.676Z,82.08
2022-09-27T22:01:55.804Z,82.18
2022-09-27T22:04:22.665Z,82.94
2022-09-27T22:06:49.604Z,82.57
2022-09-27T22:09:17.469Z,82.59
2022-09-27T22:11:46.298Z,83.24
2022-09-27T22:14:15.381Z,83.39
2022-09-27T22:16:42.796Z,83.25
2022-09-27T22:19:11.320Z,82.59
2022-09-27T22:21:39.437Z,82.90
2022-09-27T22:24:10.928Z,83.80
2022-09-27T22:26:39.853Z,82.92
2022-09-27T22:29:08.029Z,83.62
2022-09-27T22:31:37.533Z,82.66
2022-09-27T22:34:07.460Z,83.76
2022-09-27T22:36:35.098Z,83.26
2022-09-27T22:39:02.794Z,83.36
2022-09-27T22:41:30.481Z,82.80
2022-09-27T22:43:58.021Z,83.59
2022-09-27T22:46:25.615Z,83.81
2022-09-27T22:48:52.964Z,83.50
2022-09-27T22:51:19.948Z,82.98
2022-09-27T22:53:47.194Z,83.23
2022-09-27T22:56:16.655Z,83.08
2022-09-27T22:58:44.214Z,83.11
2022-09-27T23:01:22.218Z,83.97
2022-09-27T23:03:51.341Z,82.90
2022-09-27T23:06:19.937Z,83.57
2022-09-27T23:08:47.718Z,83.45
2022-09-27T23:11:20.129Z,83.68
2022-09-27T23:13:48.419Z,83.94
2022-09-27T23:16:17.851Z,84.06
2022-09-27T23:18:44.983Z,83.85
2022-09-27T23:21:13.215Z,83.36
2022-09-27T23:23:42.518Z,83.99
2022-09-27T23:26:12.028Z,83.86
2022-09-27T23:28:39.726Z,83.83
2022-09-27T23:31:09.377Z,83.20
2022-09-27T23:33:38.588Z,83.35
2022-09-27T23:36:08.311Z,83.95
2022-09-27T23:38:36.345Z,83.07
2022-09-27T23:41:03.652Z,82.86
2022-09-27T23:43:31.165Z,83.47
2022-09-27T23:45:58.215Z,83.67
2022-09-27T23:48:26.118Z,84.46
2022-09-27T23:50:53.765Z,83.43
2022-09-27T23:53:21.554Z,83.58
2022-09-27T23:55:58.712Z,83.01
2022-09-27T23:58:25.585Z,84.23
